createdAt,value
2023-04-18T00:01:40.707Z,3.65
2023-04-18T00:04:09.446Z,4.80
2023-04-18T00:06:36.713Z,4.00
2023-04-18T00:09:04.236Z,3.17
2023-04-18T00:11:31.434Z,3.10
2023-04-18T00:13:59.704Z,3.67
2023-04-18T00:16:28.610Z,5.38
2023-04-18T00:18:57.482Z,3.83
2023-04-18T00:21:27.249Z,3.42
2023-04-18T00:23:57.335Z,5.22
2023-04-18T00:26:24.793Z,3.15
2023-04-18T00:28:54.482Z,3.22
2023-04-18T00:31:21.686Z,3.65
2023-04-18T00:33:51.364Z,3.33
2023-04-18T00:36:33.750Z,2.58
2023-04-18T00:39:00.826Z,2.88
2023-04-18T00:41:28.616Z,3.10
2023-04-18T00:43:55.822Z,2.55
2023-04-18T00:46:23.195Z,2.67
2023-04-18T00:48:51.067Z,3.17
2023-04-18T00:51:18.536Z,4.40
2023-04-18T00:53:46.514Z,4.57
2023-04-18T00:56:13.793Z,4.30
2023-04-18T00:58:41.372Z,4.80
2023-04-18T01:01:10.030Z,6.25
2023-04-18T01:03:37.812Z,5.10
2023-04-18T01:06:05.261Z,4.15
2023-04-18T01:08:33.620Z,4.07
2023-04-18T01:11:00.820Z,3.90
2023-04-18T01:13:27.938Z,4.45
2023-04-18T01:15:56.153Z,3.30
2023-04-18T01:18:23.326Z,5.30
2023-04-18T01:20:52.085Z,5.70
2023-04-18T01:23:21.021Z,4.90
2023-04-18T01:25:51.839Z,6.13
2023-04-18T01:28:21.533Z,5.78
2023-04-18T01:30:48.959Z,7.38
2023-04-18T01:33:16.656Z,7.63
2023-04-18T01:35:46.123Z,6.25
2023-04-18T01:38:13.273Z,5.13
2023-04-18T01:40:40.444Z,5.53
2023-04-18T01:43:07.583Z,6.20
2023-04-18T01:45:37.905Z,6.22
2023-04-18T01:48:05.147Z,5.22
2023-04-18T01:50:32.322Z,5.68
2023-04-18T01:52:59.467Z,5.95
2023-04-18T01:55:26.676Z,5.50
2023-04-18T01:57:55.018Z,6.10
2023-04-18T02:00:22.379Z,6.88
2023-04-18T02:02:50.785Z,7.20
2023-04-18T02:05:20.877Z,7.45
2023-04-18T02:07:50.406Z,7.40
2023-04-18T02:10:18.603Z,7.55
2023-04-18T02:12:45.934Z,9.50
2023-04-18T02:15:13.090Z,8.30
2023-04-18T02:17:42.216Z,7.30
2023-04-18T02:20:11.014Z,7.05
2023-04-18T02:22:38.618Z,6.50
2023-04-18T02:25:06.184Z,6.78
2023-04-18T02:27:33.322Z,6.80
2023-04-18T02:30:00.442Z,7.32
2023-04-18T02:32:27.609Z,7.82
2023-04-18T02:34:54.776Z,7.95
2023-04-18T02:37:21.956Z,8.20
2023-04-18T02:39:49.073Z,7.75
2023-04-18T02:42:16.290Z,8.07
2023-04-18T02:44:43.408Z,10.15
2023-04-18T02:47:10.704Z,9.35
2023-04-18T02:49:41.211Z,9.57
2023-04-18T02:52:08.383Z,9.45
2023-04-18T02:54:35.487Z,9.20
2023-04-18T02:57:08.009Z,8.50
2023-04-18T02:59:58.387Z,10.27
2023-04-18T03:02:25.774Z,9.57
2023-04-18T03:04:57.747Z,9.23
2023-04-18T03:07:25.067Z,8.23
2023-04-18T03:09:52.711Z,9.07
2023-04-18T03:12:25.054Z,10.57
2023-04-18T03:14:52.230Z,12.65
2023-04-18T03:17:19.733Z,13.52
2023-04-18T03:19:49.281Z,14.48
2023-04-18T03:22:19.588Z,13.23
2023-04-18T03:24:57.080Z,13.82
2023-04-18T03:27:39.388Z,11.65
2023-04-18T03:30:07.714Z,10.55
2023-04-18T03:32:36.652Z,10.50
2023-04-18T03:35:04.268Z,10.10
2023-04-18T03:37:31.325Z,11.70
2023-04-18T03:39:59.903Z,12.07
2023-04-18T03:42:28.736Z,10.85
2023-04-18T03:44:56.020Z,11.35
2023-04-18T03:47:23.668Z,10.23
2023-04-18T03:49:55.985Z,12.52
2023-04-18T03:52:25.006Z,12.68
2023-04-18T03:54:52.296Z,13.13
2023-04-18T03:57:24.192Z,13.73
2023-04-18T03:59:52.103Z,10.40
2023-04-18T04:02:19.423Z,9.18
2023-04-18T04:04:47.304Z,8.75
2023-04-18T04:07:14.905Z,7.78
2023-04-18T04:09:42.474Z,6.65
2023-04-18T04:12:09.795Z,7.43
2023-04-18T04:14:37.300Z,7.32
2023-04-18T04:17:04.651Z,7.50
2023-04-18T04:19:32.011Z,7.63
2023-04-18T04:22:09.275Z,7.25
2023-04-18T04:24:38.758Z,8.40
2023-04-18T04:27:07.215Z,7.68
2023-04-18T04:29:39.037Z,7.43
2023-04-18T04:32:07.076Z,7.43
2023-04-18T04:34:37.793Z,7.70
2023-04-18T04:37:08.368Z,7.70
2023-04-18T04:39:42.074Z,10.73
2023-04-18T04:42:32.311Z,9.32
2023-04-18T04:45:08.541Z,9.48
2023-04-18T04:47:37.038Z,8.13
2023-04-18T04:50:06.517Z,9.20
2023-04-18T04:52:33.775Z,8.75
2023-04-18T04:55:02.200Z,8.95
2023-04-18T04:57:29.321Z,10.85
2023-04-18T04:59:56.596Z,10.70
2023-04-18T05:02:23.946Z,10.57
2023-04-18T05:04:51.356Z,10.23
2023-04-18T05:07:18.456Z,10.57
2023-04-18T05:09:45.566Z,12.10
2023-04-18T05:12:12.708Z,11.82
2023-04-18T05:14:39.837Z,11.52
2023-04-18T05:17:07.947Z,10.63
2023-04-18T05:19:36.104Z,10.13
2023-04-18T05:22:03.617Z,9.93
2023-04-18T05:24:32.814Z,10.30
2023-04-18T05:27:00.226Z,11.00
2023-04-18T05:29:27.797Z,11.10
2023-04-18T05:31:55.249Z,11.05
2023-04-18T05:34:22.678Z,11.23
2023-04-18T05:36:50.392Z,10.93
2023-04-18T05:39:17.854Z,11.48
2023-04-18T05:41:44.912Z,10.35
2023-04-18T05:44:12.758Z,11.40
2023-04-18T05:46:42.000Z,11.45
2023-04-18T05:49:09.294Z,12.38
2023-04-18T05:51:37.400Z,12.10
2023-04-18T05:54:04.715Z,11.18
2023-04-18T05:56:32.134Z,11.40
2023-04-18T05:58:59.776Z,11.95
2023-04-18T06:01:27.863Z,12.35
2023-04-18T06:03:56.068Z,11.20
2023-04-18T06:06:23.940Z,12.07
2023-04-18T06:08:51.606Z,12.25
2023-04-18T06:11:21.457Z,11.85
2023-04-18T06:13:49.261Z,11.55
2023-04-18T06:16:16.757Z,10.50
2023-04-18T06:18:44.170Z,10.27
2023-04-18T06:21:11.236Z,10.00
2023-04-18T06:23:39.008Z,9.80
2023-04-18T06:26:07.728Z,11.75
2023-04-18T06:28:35.328Z,10.70
2023-04-18T06:31:02.983Z,10.50
2023-04-18T06:33:30.061Z,13.10
2023-04-18T06:35:58.335Z,20.02
2023-04-18T06:38:25.801Z,23.38
2023-04-18T06:40:53.462Z,22.13
2023-04-18T06:43:22.942Z,21.98
2023-04-18T06:45:51.169Z,22.23
2023-04-18T06:48:18.273Z,17.75
2023-04-18T06:50:46.216Z,16.02
2023-04-18T06:53:13.419Z,15.10
2023-04-18T06:55:41.225Z,15.70
2023-04-18T06:58:09.429Z,14.02
2023-04-18T07:00:37.061Z,13.98
2023-04-18T07:03:11.371Z,15.07
2023-04-18T07:05:42.008Z,14.30
2023-04-18T07:08:09.592Z,14.20
2023-04-18T07:10:36.920Z,14.60
2023-04-18T07:13:04.963Z,13.40
2023-04-18T07:15:32.150Z,12.75
2023-04-18T07:17:59.770Z,10.90
2023-04-18T07:20:26.987Z,11.55
2023-04-18T07:22:54.395Z,9.25
2023-04-18T07:25:22.222Z,9.60
2023-04-18T07:27:50.470Z,8.38
2023-04-18T07:30:17.552Z,8.13
2023-04-18T07:32:45.198Z,8.65
2023-04-18T07:35:12.655Z,9.38
2023-04-18T07:37:39.957Z,8.77
2023-04-18T07:40:07.609Z,7.55
2023-04-18T07:42:34.785Z,7.55
2023-04-18T07:45:01.886Z,7.25
2023-04-18T07:47:30.759Z,7.05
2023-04-18T07:49:58.687Z,8.02
2023-04-18T07:52:26.118Z,8.90
2023-04-18T07:54:53.389Z,9.73
2023-04-18T07:57:20.768Z,10.18
2023-04-18T07:59:48.019Z,9.13
2023-04-18T08:02:15.362Z,10.27
2023-04-18T08:04:42.697Z,11.60
2023-04-18T08:07:09.919Z,13.05
2023-04-18T08:09:37.048Z,12.27
2023-04-18T08:12:04.359Z,13.43
2023-04-18T08:14:31.587Z,12.20
2023-04-18T08:16:58.757Z,14.30
2023-04-18T08:19:26.645Z,13.90
2023-04-18T08:21:53.768Z,14.50
2023-04-18T08:24:21.058Z,14.02
2023-04-18T08:26:48.312Z,13.68
2023-04-18T08:29:15.502Z,13.40
2023-04-18T08:31:42.713Z,14.23
2023-04-18T08:34:09.999Z,11.48
2023-04-18T08:36:37.119Z,9.63
2023-04-18T08:39:04.702Z,7.53
2023-04-18T08:41:37.229Z,8.60
2023-04-18T08:44:04.500Z,7.90
2023-04-18T08:46:37.504Z,5.30
2023-04-18T08:49:06.540Z,4.25
2023-04-18T08:51:34.154Z,4.03
2023-04-18T08:54:04.712Z,7.22
2023-04-18T08:56:32.389Z,2.33
2023-04-18T08:59:00.652Z,2.80
2023-04-18T09:01:56.794Z,2.45
2023-04-18T09:04:37.519Z,4.13
2023-04-18T09:07:07.522Z,4.28
2023-04-18T09:09:48.965Z,3.78
2023-04-18T09:12:25.719Z,3.15
2023-04-18T09:14:57.985Z,4.70
2023-04-18T09:17:32.285Z,4.22
2023-04-18T09:20:00.395Z,4.22
2023-04-18T09:22:46.470Z,3.60
2023-04-18T09:25:45.432Z,3.67
2023-04-18T09:28:33.383Z,4.93
2023-04-18T09:31:04.676Z,6.05
2023-04-18T09:33:37.129Z,4.97
2023-04-18T09:36:31.527Z,2.92
2023-04-18T09:38:58.909Z,3.30
2023-04-18T09:41:26.028Z,2.83
2023-04-18T09:44:13.528Z,2.08
2023-04-18T09:46:43.351Z,2.83
2023-04-18T09:49:12.875Z,2.08
2023-04-18T09:51:42.420Z,2.88
2023-04-18T09:54:15.403Z,3.85
2023-04-18T09:56:47.092Z,3.40
2023-04-18T09:59:19.837Z,2.40
2023-04-18T10:01:50.054Z,2.67
2023-04-18T10:04:18.684Z,2.53
2023-04-18T10:06:47.098Z,1.33
2023-04-18T10:09:16.394Z,1.48
2023-04-18T10:11:44.672Z,1.40
2023-04-18T10:14:14.921Z,1.40
2023-04-18T10:16:45.927Z,2.22
2023-04-18T10:19:27.660Z,2.70
2023-04-18T10:22:00.793Z,3.15
2023-04-18T10:24:56.488Z,2.90
2023-04-18T10:27:48.149Z,3.25
2023-04-18T10:30:16.590Z,2.92
2023-04-18T10:32:46.216Z,3.58
2023-04-18T10:35:13.418Z,3.97
2023-04-18T10:37:51.375Z,2.85
2023-04-18T10:40:33.217Z,2.60
2023-04-18T10:43:00.699Z,2.67
2023-04-18T10:45:31.825Z,2.15
2023-04-18T10:48:29.676Z,3.42
2023-04-18T10:51:19.235Z,3.50
2023-04-18T10:53:53.060Z,2.92
2023-04-18T10:56:20.968Z,2.60
2023-04-18T10:58:52.366Z,2.80
2023-04-18T11:01:33.398Z,3.78
2023-04-18T11:04:01.582Z,2.58
2023-04-18T11:06:29.332Z,2.80
2023-04-18T11:09:12.783Z,2.28
2023-04-18T11:11:40.557Z,2.60
2023-04-18T11:14:08.032Z,2.83
2023-04-18T11:16:35.431Z,2.30
2023-04-18T11:19:22.161Z,2.80
2023-04-18T11:21:49.888Z,2.45
2023-04-18T11:24:24.238Z,2.13
2023-04-18T11:26:56.437Z,2.40
2023-04-18T11:29:23.643Z,1.52
2023-04-18T11:31:58.330Z,2.65
2023-04-18T11:34:33.197Z,2.83
2023-04-18T11:37:00.708Z,1.55
2023-04-18T11:39:28.239Z,1.10
2023-04-18T11:41:57.468Z,1.08
2023-04-18T11:44:25.211Z,1.13
2023-04-18T11:46:54.991Z,1.52
2023-04-18T11:49:25.698Z,1.50
2023-04-18T11:51:53.938Z,1.40
2023-04-18T11:54:40.117Z,1.50
2023-04-18T11:57:19.359Z,1.70
2023-04-18T12:00:07.122Z,1.10
2023-04-18T12:02:45.123Z,1.00
2023-04-18T12:05:15.323Z,1.50
2023-04-18T12:07:48.927Z,2.00
2023-04-18T12:10:31.632Z,2.40
2023-04-18T12:13:00.068Z,2.20
2023-04-18T12:15:29.786Z,2.60
2023-04-18T12:18:02.482Z,1.83
2023-04-18T12:20:46.528Z,2.78
2023-04-18T12:23:30.350Z,1.80
2023-04-18T12:26:05.193Z,1.70
2023-04-18T12:28:33.047Z,2.63
2023-04-18T12:31:00.273Z,1.70
2023-04-18T12:33:27.830Z,2.28
2023-04-18T12:35:55.012Z,1.50
2023-04-18T12:38:23.628Z,1.52
2023-04-18T12:40:52.033Z,2.13
2023-04-18T12:43:21.897Z,2.08
2023-04-18T12:45:50.320Z,1.80
2023-04-18T12:48:17.418Z,1.30
2023-04-18T12:50:44.696Z,1.65
2023-04-18T12:53:11.944Z,1.27
2023-04-18T12:55:39.240Z,2.78
2023-04-18T12:58:06.344Z,2.05
2023-04-18T13:00:33.804Z,4.13
2023-04-18T13:03:01.511Z,3.45
2023-04-18T13:05:33.166Z,2.83
2023-04-18T13:10:31.396Z,4.30
2023-04-18T13:12:58.702Z,4.63
2023-04-18T13:15:27.715Z,3.42
2023-04-18T13:17:57.106Z,5.32
2023-04-18T13:20:24.413Z,4.07
2023-04-18T13:22:51.526Z,4.03
2023-04-18T13:25:18.685Z,3.13
2023-04-18T13:27:46.299Z,3.55
2023-04-18T13:30:13.792Z,3.97
2023-04-18T13:32:41.158Z,3.47
2023-04-18T13:35:11.046Z,2.90
2023-04-18T13:37:38.943Z,2.50
2023-04-18T13:40:07.069Z,4.78
2023-04-18T13:42:37.109Z,5.15
2023-04-18T13:45:04.983Z,4.13
2023-04-18T13:47:32.498Z,3.13
2023-04-18T13:49:59.903Z,4.22
2023-04-18T13:52:27.053Z,3.65
2023-04-18T13:54:54.412Z,3.97
2023-04-18T13:57:22.289Z,4.80
2023-04-18T13:59:49.521Z,5.03
2023-04-18T14:02:16.967Z,4.30
2023-04-18T14:04:44.323Z,4.35
2023-04-18T14:07:11.759Z,6.47
2023-04-18T14:09:38.996Z,5.57
2023-04-18T14:12:06.414Z,5.80
2023-04-18T14:14:33.618Z,3.58
2023-04-18T14:17:03.365Z,6.00
2023-04-18T14:19:30.546Z,5.93
2023-04-18T14:21:57.694Z,5.03
2023-04-18T14:24:24.837Z,5.28
2023-04-18T14:26:52.064Z,5.18
2023-04-18T14:29:19.295Z,4.95
2023-04-18T14:31:46.656Z,5.35
2023-04-18T14:34:14.144Z,5.10
2023-04-18T14:36:41.498Z,8.27
2023-04-18T14:39:08.766Z,4.97
2023-04-18T14:41:36.106Z,4.50
2023-04-18T14:44:04.406Z,5.28
2023-04-18T14:46:31.779Z,3.20
2023-04-18T14:48:59.028Z,3.50
2023-04-18T14:51:26.566Z,3.80
2023-04-18T14:53:53.743Z,4.53
2023-04-18T14:56:22.426Z,4.63
2023-04-18T14:58:49.571Z,6.22
2023-04-18T15:01:19.680Z,3.38
2023-04-18T15:03:47.040Z,2.90
2023-04-18T15:06:14.385Z,3.47
2023-04-18T15:08:41.536Z,5.00
2023-04-18T15:11:09.259Z,3.67
2023-04-18T15:13:36.790Z,3.10
2023-04-18T15:16:04.131Z,3.15
2023-04-18T15:18:31.334Z,2.67
2023-04-18T15:20:59.909Z,4.35
2023-04-18T15:23:27.885Z,4.20
2023-04-18T15:25:55.173Z,3.60
2023-04-18T15:28:22.528Z,3.33
2023-04-18T15:30:49.678Z,3.20
2023-04-18T15:33:19.333Z,3.00
2023-04-18T15:35:47.957Z,2.25
2023-04-18T15:38:15.293Z,3.55
2023-04-18T15:40:43.804Z,2.97
2023-04-18T15:43:11.364Z,3.25
2023-04-18T15:45:38.547Z,3.42
2023-04-18T15:48:05.948Z,4.60
2023-04-18T15:50:34.080Z,3.70
2023-04-18T15:53:01.869Z,2.72
2023-04-18T15:55:29.069Z,2.92
2023-04-18T15:57:56.548Z,3.05
2023-04-18T16:00:24.420Z,2.60
2023-04-18T16:02:51.799Z,3.03
2023-04-18T16:05:19.348Z,2.50
2023-04-18T16:07:46.664Z,3.00
2023-04-18T16:10:15.522Z,3.03
2023-04-18T16:12:42.817Z,3.60
2023-04-18T16:15:12.046Z,2.97
2023-04-18T16:17:40.319Z,3.20
2023-04-18T16:20:09.922Z,2.70
2023-04-18T16:22:39.096Z,3.65
2023-04-18T16:25:08.532Z,3.17
2023-04-18T16:27:37.731Z,3.30
2023-04-18T16:30:06.545Z,3.88
2023-04-18T16:32:34.719Z,4.13
2023-04-18T16:35:04.469Z,4.32
2023-04-18T16:37:33.554Z,4.28
2023-04-18T16:40:01.314Z,3.97
2023-04-18T16:42:28.515Z,6.00
2023-04-18T16:44:55.725Z,5.70
2023-04-18T16:47:22.838Z,9.10
2023-04-18T16:49:51.626Z,11.10
2023-04-18T16:52:19.200Z,7.53
2023-04-18T16:54:46.326Z,6.50
2023-04-18T16:57:13.580Z,7.13
2023-04-18T16:59:42.152Z,5.50
2023-04-18T17:02:09.521Z,6.00
2023-04-18T17:04:37.256Z,5.50
2023-04-18T17:07:04.599Z,5.88
2023-04-18T17:09:32.367Z,5.95
2023-04-18T17:11:59.663Z,7.32
2023-04-18T17:14:26.931Z,7.60
2023-04-18T17:16:54.180Z,7.82
2023-04-18T17:19:21.634Z,9.13
2023-04-18T17:21:49.738Z,7.82
2023-04-18T17:24:19.010Z,6.57
2023-04-18T17:26:46.250Z,6.50
2023-04-18T17:29:13.659Z,7.15
2023-04-18T17:31:41.438Z,7.35
2023-04-18T17:34:08.663Z,5.95
2023-04-18T17:36:35.962Z,5.82
2023-04-18T17:39:06.800Z,4.35
2023-04-18T17:41:39.952Z,3.45
2023-04-18T17:44:08.678Z,3.22
2023-04-18T17:46:36.274Z,2.22
2023-04-18T17:49:04.849Z,1.77
2023-04-18T17:51:32.177Z,2.10
2023-04-18T17:53:59.336Z,2.38
2023-04-18T17:56:27.256Z,2.90
2023-04-18T17:58:56.578Z,2.92
2023-04-18T18:01:25.036Z,3.45
2023-04-18T18:03:54.088Z,3.13
2023-04-18T18:06:21.868Z,4.63
2023-04-18T18:08:49.177Z,4.30
2023-04-18T18:11:16.546Z,5.20
2023-04-18T18:13:44.218Z,5.18
2023-04-18T18:16:11.895Z,14.15
2023-04-18T18:18:39.769Z,10.05
2023-04-18T18:21:06.997Z,27.60
2023-04-18T18:23:34.328Z,12.98
2023-04-18T18:26:01.551Z,11.48
2023-04-18T18:28:29.125Z,8.23
2023-04-18T18:30:56.293Z,5.55
2023-04-18T18:33:23.592Z,7.90
2023-04-18T18:35:51.127Z,7.55
2023-04-18T18:38:18.342Z,6.22
2023-04-18T18:40:46.058Z,5.95
2023-04-18T18:43:13.572Z,6.22
2023-04-18T18:45:40.873Z,4.95
2023-04-18T18:48:12.058Z,6.80
2023-04-18T18:50:39.289Z,6.07
2023-04-18T18:53:07.437Z,5.80
2023-04-18T18:55:34.504Z,6.50
2023-04-18T18:58:02.830Z,5.30
2023-04-18T19:00:30.221Z,6.82
2023-04-18T19:02:57.824Z,8.02
2023-04-18T19:05:25.101Z,7.45
2023-04-18T19:07:52.483Z,7.10
2023-04-18T19:10:19.910Z,7.00
2023-04-18T19:12:47.369Z,7.85
2023-04-18T19:15:15.050Z,6.30
2023-04-18T19:17:42.268Z,7.55
2023-04-18T19:20:09.772Z,8.63
2023-04-18T19:22:37.756Z,9.65
2023-04-18T19:25:05.159Z,9.50
2023-04-18T19:27:32.508Z,9.10
2023-04-18T19:29:59.624Z,10.85
2023-04-18T19:32:27.221Z,12.70
2023-04-18T19:34:54.425Z,16.20
2023-04-18T19:37:21.654Z,15.90
2023-04-18T19:39:48.819Z,15.52
2023-04-18T19:42:15.933Z,12.35
2023-04-18T19:44:43.203Z,10.68
2023-04-18T19:47:10.462Z,11.45
2023-04-18T19:49:38.109Z,11.60
2023-04-18T19:52:05.459Z,12.20
2023-04-18T19:54:36.223Z,12.25
2023-04-18T19:57:04.966Z,17.30
2023-04-18T19:59:32.330Z,18.25
2023-04-18T20:02:03.287Z,15.20
2023-04-18T20:04:35.237Z,13.70
2023-04-18T20:07:02.980Z,13.10
2023-04-18T20:09:30.165Z,11.48
2023-04-18T20:12:00.689Z,11.90
2023-04-18T20:14:29.087Z,9.90
2023-04-18T20:16:56.887Z,9.50
2023-04-18T20:19:27.132Z,11.00
2023-04-18T20:21:54.249Z,11.32
2023-04-18T20:24:24.085Z,11.93
2023-04-18T20:26:51.942Z,11.75
2023-04-18T20:29:19.119Z,12.95
2023-04-18T20:31:46.485Z,13.57
2023-04-18T20:34:13.692Z,41.08
2023-04-18T20:36:41.858Z,47.03
2023-04-18T20:39:09.500Z,28.50
2023-04-18T20:41:37.341Z,18.95
2023-04-18T20:44:09.413Z,19.42
2023-04-18T20:46:36.616Z,13.98
2023-04-18T20:49:03.927Z,15.43
2023-04-18T20:51:32.068Z,15.75
2023-04-18T20:53:59.243Z,17.08
2023-04-18T20:56:26.711Z,18.85
2023-04-18T20:58:53.816Z,20.48
2023-04-18T21:01:22.129Z,19.30
2023-04-18T21:03:54.644Z,21.65
2023-04-18T21:06:22.329Z,20.65
2023-04-18T21:08:50.196Z,19.60
2023-04-18T21:11:17.328Z,12.85
2023-04-18T21:13:44.523Z,11.63
2023-04-18T21:16:11.731Z,8.45
2023-04-18T21:18:38.857Z,8.52
2023-04-18T21:21:06.447Z,9.77
2023-04-18T21:23:33.686Z,9.35
2023-04-18T21:26:00.903Z,10.32
2023-04-18T21:28:28.065Z,11.82
2023-04-18T21:30:55.254Z,15.52
2023-04-18T21:33:23.976Z,17.98
2023-04-18T21:35:51.240Z,19.55
2023-04-18T21:38:18.458Z,18.15
2023-04-18T21:40:45.603Z,17.17
2023-04-18T21:43:12.768Z,17.63
2023-04-18T21:45:40.122Z,16.67
2023-04-18T21:48:09.884Z,16.55
2023-04-18T21:50:37.064Z,14.32
2023-04-18T21:53:04.210Z,15.35
2023-04-18T21:55:31.368Z,15.13
2023-04-18T21:57:59.965Z,13.63
2023-04-18T22:00:27.961Z,14.50
2023-04-18T22:02:55.337Z,14.07
2023-04-18T22:05:22.526Z,14.07
2023-04-18T22:07:57.548Z,14.57
2023-04-18T22:10:25.878Z,14.38
2023-04-18T22:12:54.375Z,13.77
2023-04-18T22:15:21.868Z,14.05
2023-04-18T22:17:50.746Z,13.68
2023-04-18T22:20:17.968Z,13.57
2023-04-18T22:22:45.972Z,14.10
2023-04-18T22:25:13.158Z,14.38
2023-04-18T22:27:41.194Z,14.50
2023-04-18T22:30:09.476Z,13.00
2023-04-18T22:32:37.049Z,14.13
2023-04-18T22:35:04.485Z,14.68
2023-04-18T22:37:31.772Z,12.65
2023-04-18T22:39:59.026Z,14.10
2023-04-18T22:42:26.206Z,14.07
2023-04-18T22:44:53.444Z,13.63
2023-04-18T22:47:20.909Z,13.77
2023-04-18T22:49:48.095Z,15.20
2023-04-18T22:52:15.990Z,16.00
2023-04-18T22:54:43.284Z,11.98
2023-04-18T22:57:10.533Z,11.93
2023-04-18T22:59:37.908Z,12.52
2023-04-18T23:02:05.396Z,13.00
2023-04-18T23:04:33.405Z,12.50
2023-04-18T23:07:00.699Z,13.15
2023-04-18T23:09:28.790Z,12.20
2023-04-18T23:11:56.902Z,11.52
2023-04-18T23:14:24.279Z,12.15
2023-04-18T23:16:51.896Z,11.63
2023-04-18T23:19:19.701Z,12.20
2023-04-18T23:21:48.973Z,12.25
2023-04-18T23:24:17.246Z,11.75
2023-04-18T23:26:44.462Z,11.05
2023-04-18T23:29:12.170Z,11.88
2023-04-18T23:31:39.810Z,11.23
2023-04-18T23:34:08.787Z,12.88
2023-04-18T23:36:36.510Z,13.95
2023-04-18T23:39:04.480Z,13.15
2023-04-18T23:41:31.613Z,14.73
2023-04-18T23:44:01.440Z,13.93
2023-04-18T23:46:31.455Z,15.70
2023-04-18T23:48:59.574Z,12.68
2023-04-18T23:51:28.453Z,13.95
2023-04-18T23:53:55.933Z,13.15
2023-04-18T23:56:23.502Z,8.80
2023-04-18T23:58:50.914Z,8.18
